createdAt,value
2022-09-18T00:00:15.000Z,9.11111111111111
2022-09-18T00:00:42.000Z,9.11111111111111
2022-09-18T00:01:12.000Z,9.11111111111111
2022-09-18T00:01:32.000Z,9.11111111111111
2022-09-18T00:02:02.000Z,9.11111111111111
2022-09-18T00:02:32.000Z,9.000000000000002
2022-09-18T00:03:07.000Z,9.11111111111111
2022-09-18T00:03:37.000Z,9.11111111111111
2022-09-18T00:04:12.000Z,9.11111111111111
2022-09-18T00:04:52.000Z,9.11111111111111
2022-09-18T00:05:13.000Z,9.11111111111111
2022-09-18T00:05:47.000Z,9.11111111111111
2022-09-18T00:06:17.000Z,9.11111111111111
2022-09-18T00:06:43.000Z,9.11111111111111
2022-09-18T00:07:07.000Z,9.11111111111111
2022-09-18T00:07:37.000Z,9.11111111111111
2022-09-18T00:08:13.000Z,9.11111111111111
2022-09-18T00:08:42.000Z,9.11111111111111
2022-09-18T00:09:12.000Z,9.11111111111111
2022-09-18T00:09:32.000Z,9.11111111111111
2022-09-18T00:10:02.000Z,9.11111111111111
2022-09-18T00:10:32.000Z,9.11111111111111
2022-09-18T00:10:52.000Z,9.11111111111111
2022-09-18T00:11:32.000Z,9.11111111111111
2022-09-18T00:12:07.000Z,9.000000000000002
2022-09-18T00:12:28.000Z,9.11111111111111
2022-09-18T00:12:58.000Z,9.11111111111111
2022-09-18T00:13:32.000Z,9.11111111111111
2022-09-18T00:14:02.000Z,9.222222222222221
2022-09-18T00:14:33.000Z,9.222222222222221
2022-09-18T00:15:07.000Z,9.222222222222221
2022-09-18T00:15:37.000Z,9.222222222222221
2022-09-18T00:16:12.000Z,9.222222222222221
2022-09-18T00:16:52.000Z,9.222222222222221
2022-09-18T00:17:12.000Z,9.222222222222221
2022-09-18T00:17:32.000Z,9.222222222222221
2022-09-18T00:18:02.000Z,9.222222222222221
2022-09-18T00:18:33.000Z,9.222222222222221
2022-09-18T00:19:02.000Z,9.222222222222221
2022-09-18T00:19:22.000Z,9.222222222222221
2022-09-18T00:19:44.000Z,9.222222222222221
2022-09-18T00:20:12.000Z,9.222222222222221
2022-09-18T00:20:42.000Z,9.222222222222221
2022-09-18T00:21:12.000Z,9.222222222222221
2022-09-18T00:21:32.000Z,9.222222222222221
2022-09-18T00:22:02.000Z,9.222222222222221
2022-09-18T00:22:32.000Z,9.222222222222221
2022-09-18T00:22:52.000Z,9.222222222222221
2022-09-18T00:23:22.000Z,9.222222222222221
2022-09-18T00:23:44.000Z,9.222222222222221
2022-09-18T00:24:12.000Z,9.222222222222221
2022-09-18T00:24:42.000Z,9.222222222222221
2022-09-18T00:25:13.000Z,9.222222222222221
2022-09-18T00:25:47.000Z,9.222222222222221
2022-09-18T00:26:17.000Z,9.222222222222221
2022-09-18T00:26:42.000Z,9.222222222222221
2022-09-18T00:27:08.000Z,9.222222222222221
2022-09-18T00:27:38.000Z,9.222222222222221
2022-09-18T00:28:13.000Z,9.277777777777779
2022-09-18T00:28:42.000Z,9.277777777777779
2022-09-18T00:29:12.000Z,9.277777777777779
2022-09-18T00:29:47.000Z,9.277777777777779
2022-09-18T00:30:17.000Z,9.277777777777779
2022-09-18T00:30:43.000Z,9.277777777777779
2022-09-18T00:31:07.000Z,9.277777777777779
2022-09-18T00:31:37.000Z,9.277777777777779
2022-09-18T00:32:12.000Z,9.277777777777779
2022-09-18T00:32:44.000Z,9.277777777777779
2022-09-18T00:33:12.000Z,9.277777777777779
2022-09-18T00:33:42.000Z,9.277777777777779
2022-09-18T00:34:03.000Z,9.277777777777779
2022-09-18T00:34:32.000Z,9.277777777777779
2022-09-18T00:35:07.000Z,9.277777777777779
2022-09-18T00:35:37.000Z,9.277777777777779
2022-09-18T00:36:12.000Z,9.277777777777779
2022-09-18T00:36:42.000Z,9.277777777777779
2022-09-18T00:37:12.000Z,9.277777777777779
2022-09-18T00:37:47.000Z,9.277777777777779
2022-09-18T00:38:17.000Z,9.277777777777779
2022-09-18T00:38:42.000Z,9.277777777777779
2022-09-18T00:39:07.000Z,9.277777777777779
2022-09-18T00:39:37.000Z,9.277777777777779
2022-09-18T00:40:12.000Z,9.277777777777779
2022-09-18T00:40:43.000Z,9.277777777777779
2022-09-18T00:41:17.000Z,9.277777777777779
2022-09-18T00:41:48.000Z,9.277777777777779
2022-09-18T00:42:17.000Z,9.277777777777779
2022-09-18T00:42:50.000Z,9.277777777777779
2022-09-18T00:43:22.000Z,9.277777777777779
2022-09-18T00:43:44.000Z,9.277777777777779
2022-09-18T00:44:13.000Z,9.277777777777779
2022-09-18T00:44:42.000Z,9.277777777777779
2022-09-18T00:45:12.000Z,9.277777777777779
2022-09-18T00:45:42.000Z,9.277777777777779
2022-09-18T00:46:02.000Z,9.277777777777779
2022-09-18T00:46:32.000Z,9.277777777777779
2022-09-18T00:47:07.000Z,9.277777777777779
2022-09-18T00:47:37.000Z,9.277777777777779
2022-09-18T00:48:22.000Z,9.277777777777779
2022-09-18T00:48:52.000Z,9.277777777777779
2022-09-18T00:49:15.000Z,9.277777777777779
2022-09-18T00:49:42.000Z,9.277777777777779
2022-09-18T00:50:12.000Z,9.277777777777779
2022-09-18T00:50:42.000Z,9.277777777777779
2022-09-18T00:51:09.000Z,9.277777777777779
2022-09-18T00:51:36.000Z,9.277777777777779
2022-09-18T00:52:12.000Z,9.277777777777779
2022-09-18T00:52:52.000Z,9.277777777777779
2022-09-18T00:53:15.000Z,9.277777777777779
2022-09-18T00:53:42.000Z,9.277777777777779
2022-09-18T00:54:12.000Z,9.277777777777779
2022-09-18T00:54:42.000Z,9.277777777777779
2022-09-18T00:55:08.000Z,9.277777777777779
2022-09-18T00:55:36.000Z,9.277777777777779
2022-09-18T00:56:02.000Z,9.277777777777779
2022-09-18T00:56:29.000Z,9.277777777777779
2022-09-18T00:56:57.000Z,9.38888888888889
2022-09-18T00:57:32.000Z,9.38888888888889
2022-09-18T00:58:02.000Z,9.38888888888889
2022-09-18T00:58:33.000Z,9.38888888888889
2022-09-18T00:59:07.000Z,9.38888888888889
2022-09-18T00:59:37.000Z,9.38888888888889
2022-09-18T01:00:12.000Z,9.38888888888889
2022-09-18T01:00:42.000Z,9.38888888888889
2022-09-18T01:01:12.000Z,9.38888888888889
2022-09-18T01:01:32.000Z,9.38888888888889
2022-09-18T01:02:02.000Z,9.38888888888889
2022-09-18T01:02:32.000Z,9.38888888888889
2022-09-18T01:02:52.000Z,9.38888888888889
2022-09-18T01:03:22.000Z,9.38888888888889
2022-09-18T01:03:45.000Z,9.38888888888889
2022-09-18T01:04:13.000Z,9.38888888888889
2022-09-18T01:04:42.000Z,9.38888888888889
2022-09-18T01:05:12.000Z,9.38888888888889
2022-09-18T01:05:33.000Z,9.38888888888889
2022-09-18T01:06:02.000Z,9.38888888888889
2022-09-18T01:06:32.000Z,9.38888888888889
2022-09-18T01:06:52.000Z,9.38888888888889
2022-09-18T01:07:22.000Z,9.38888888888889
2022-09-18T01:07:44.000Z,9.38888888888889
2022-09-18T01:08:12.000Z,9.38888888888889
2022-09-18T01:08:42.000Z,9.38888888888889
2022-09-18T01:09:12.000Z,9.38888888888889
2022-09-18T01:09:33.000Z,9.38888888888889
2022-09-18T01:10:12.000Z,9.38888888888889
2022-09-18T01:10:42.000Z,9.38888888888889
2022-09-18T01:11:08.000Z,9.38888888888889
2022-09-18T01:11:36.000Z,9.38888888888889
2022-09-18T01:11:53.000Z,9.38888888888889
2022-09-18T01:12:12.000Z,9.38888888888889
2022-09-18T01:12:42.000Z,9.38888888888889
2022-09-18T01:13:12.000Z,9.38888888888889
2022-09-18T01:13:32.000Z,9.38888888888889
2022-09-18T01:14:02.000Z,9.38888888888889
2022-09-18T01:14:32.000Z,9.38888888888889
2022-09-18T01:14:52.000Z,9.38888888888889
2022-09-18T01:15:22.000Z,9.38888888888889
2022-09-18T01:15:45.000Z,9.38888888888889
2022-09-18T01:16:12.000Z,9.38888888888889
2022-09-18T01:16:42.000Z,9.38888888888889
2022-09-18T01:17:12.000Z,9.38888888888889
2022-09-18T01:17:48.000Z,9.38888888888889
2022-09-18T01:18:18.000Z,9.38888888888889
2022-09-18T01:18:43.000Z,9.38888888888889
2022-09-18T01:19:08.000Z,9.38888888888889
2022-09-18T01:19:37.000Z,9.38888888888889
2022-09-18T01:20:12.000Z,9.38888888888889
2022-09-18T01:20:42.000Z,9.38888888888889
2022-09-18T01:21:12.000Z,9.38888888888889
2022-09-18T01:21:33.000Z,9.38888888888889
2022-09-18T01:22:02.000Z,9.38888888888889
2022-09-18T01:22:32.000Z,9.38888888888889
2022-09-18T01:22:52.000Z,9.38888888888889
2022-09-18T01:23:23.000Z,9.38888888888889
2022-09-18T01:23:44.000Z,9.38888888888889
2022-09-18T01:24:12.000Z,9.38888888888889
2022-09-18T01:24:42.000Z,9.38888888888889
2022-09-18T01:25:22.000Z,9.38888888888889
2022-09-18T01:25:48.000Z,9.38888888888889
2022-09-18T01:26:19.000Z,9.38888888888889
2022-09-18T01:26:43.000Z,9.38888888888889
2022-09-18T01:27:08.000Z,9.38888888888889
2022-09-18T01:27:36.000Z,9.38888888888889
2022-09-18T01:28:02.000Z,9.38888888888889
2022-09-18T01:28:28.000Z,9.38888888888889
2022-09-18T01:28:52.000Z,9.38888888888889
2022-09-18T01:29:16.000Z,9.38888888888889
2022-09-18T01:29:43.000Z,9.38888888888889
2022-09-18T01:30:12.000Z,9.38888888888889
2022-09-18T01:30:32.000Z,9.38888888888889
2022-09-18T01:30:51.000Z,9.38888888888889
2022-09-18T01:31:23.000Z,9.277777777777779
2022-09-18T01:31:44.000Z,9.277777777777779
2022-09-18T01:32:12.000Z,9.38888888888889
2022-09-18T01:32:43.000Z,9.277777777777779
2022-09-18T01:33:13.000Z,9.38888888888889
2022-09-18T01:33:47.000Z,9.38888888888889
2022-09-18T01:34:17.000Z,9.38888888888889
2022-09-18T01:34:43.000Z,9.277777777777779
2022-09-18T01:35:07.000Z,9.277777777777779
2022-09-18T01:35:37.000Z,9.277777777777779
2022-09-18T01:36:12.000Z,9.277777777777779
2022-09-18T01:36:42.000Z,9.277777777777779
2022-09-18T01:37:22.000Z,9.277777777777779
2022-09-18T01:37:47.000Z,9.277777777777779
2022-09-18T01:38:17.000Z,9.277777777777779
2022-09-18T01:38:44.000Z,9.277777777777779
2022-09-18T01:39:08.000Z,9.38888888888889
2022-09-18T01:39:37.000Z,9.38888888888889
2022-09-18T01:40:12.000Z,9.277777777777779
2022-09-18T01:40:42.000Z,9.277777777777779
2022-09-18T01:41:12.000Z,9.277777777777779
2022-09-18T01:41:33.000Z,9.277777777777779
2022-09-18T01:42:02.000Z,9.38888888888889
2022-09-18T01:42:32.000Z,9.38888888888889
2022-09-18T01:42:52.000Z,9.38888888888889
2022-09-18T01:43:22.000Z,9.38888888888889
2022-09-18T01:43:44.000Z,9.38888888888889
2022-09-18T01:44:12.000Z,9.38888888888889
2022-09-18T01:44:40.000Z,9.38888888888889
2022-09-18T01:45:03.000Z,9.38888888888889
2022-09-18T01:45:34.000Z,9.38888888888889
2022-09-18T01:45:57.000Z,9.38888888888889
2022-09-18T01:46:20.000Z,9.38888888888889
2022-09-18T01:46:47.000Z,9.38888888888889
2022-09-18T01:47:10.000Z,9.38888888888889
2022-09-18T01:47:39.000Z,9.38888888888889
2022-09-18T01:48:12.000Z,9.38888888888889
2022-09-18T01:48:52.000Z,9.38888888888889
2022-09-18T01:49:13.000Z,9.38888888888889
2022-09-18T01:49:47.000Z,9.611111111111109
2022-09-18T01:50:17.000Z,9.38888888888889
2022-09-18T01:50:51.000Z,9.38888888888889
2022-09-18T01:51:22.000Z,9.611111111111109
2022-09-18T01:51:44.000Z,9.611111111111109
2022-09-18T01:52:12.000Z,9.611111111111109
2022-09-18T01:52:42.000Z,9.611111111111109
2022-09-18T01:53:13.000Z,9.611111111111109
2022-09-18T01:53:47.000Z,9.611111111111109
2022-09-18T01:54:17.000Z,9.611111111111109
2022-09-18T01:54:43.000Z,9.611111111111109
2022-09-18T01:55:07.000Z,9.611111111111109
2022-09-18T01:55:47.000Z,9.611111111111109
2022-09-18T01:56:13.000Z,9.38888888888889
2022-09-18T01:56:42.000Z,9.38888888888889
2022-09-18T01:57:12.000Z,9.38888888888889
2022-09-18T01:57:47.000Z,9.38888888888889
2022-09-18T01:58:17.000Z,9.38888888888889
2022-09-18T01:58:43.000Z,9.38888888888889
2022-09-18T01:59:08.000Z,9.38888888888889
2022-09-18T01:59:37.000Z,9.38888888888889
2022-09-18T02:00:12.000Z,9.38888888888889
2022-09-18T02:00:42.000Z,9.38888888888889
2022-09-18T02:01:12.000Z,9.38888888888889
2022-09-18T02:01:47.000Z,9.38888888888889
2022-09-18T02:02:17.000Z,9.38888888888889
2022-09-18T02:02:50.000Z,9.38888888888889
2022-09-18T02:03:22.000Z,9.38888888888889
2022-09-18T02:03:44.000Z,9.38888888888889
2022-09-18T02:04:12.000Z,9.38888888888889
2022-09-18T02:04:42.000Z,9.38888888888889
2022-09-18T02:05:12.000Z,9.38888888888889
2022-09-18T02:05:47.000Z,9.38888888888889
2022-09-18T02:06:17.000Z,9.38888888888889
2022-09-18T02:06:42.000Z,9.38888888888889
2022-09-18T02:07:07.000Z,9.38888888888889
2022-09-18T02:07:37.000Z,9.611111111111109
2022-09-18T02:08:13.000Z,9.611111111111109
2022-09-18T02:08:42.000Z,9.611111111111109
2022-09-18T02:09:17.000Z,9.611111111111109
2022-09-18T02:09:47.000Z,9.611111111111109
2022-09-18T02:10:17.000Z,9.611111111111109
2022-09-18T02:10:42.000Z,9.611111111111109
2022-09-18T02:11:07.000Z,9.611111111111109
2022-09-18T02:11:37.000Z,9.611111111111109
2022-09-18T02:12:12.000Z,9.611111111111109
2022-09-18T02:12:43.000Z,9.611111111111109
2022-09-18T02:13:13.000Z,9.611111111111109
2022-09-18T02:13:47.000Z,9.611111111111109
2022-09-18T02:14:18.000Z,9.611111111111109
2022-09-18T02:14:50.000Z,9.611111111111109
2022-09-18T02:15:22.000Z,9.611111111111109
2022-09-18T02:15:44.000Z,9.611111111111109
2022-09-18T02:16:12.000Z,9.611111111111109
2022-09-18T02:16:40.000Z,9.611111111111109
2022-09-18T02:17:03.000Z,9.611111111111109
2022-09-18T02:17:34.000Z,9.611111111111109
2022-09-18T02:17:57.000Z,9.611111111111109
2022-09-18T02:18:20.000Z,9.611111111111109
2022-09-18T02:18:47.000Z,9.611111111111109
2022-09-18T02:19:10.000Z,9.611111111111109
2022-09-18T02:19:38.000Z,9.611111111111109
2022-09-18T02:20:12.000Z,9.611111111111109
2022-09-18T02:20:52.000Z,9.611111111111109
2022-09-18T02:21:15.000Z,9.611111111111109
2022-09-18T02:21:47.000Z,9.611111111111109
2022-09-18T02:22:17.000Z,9.611111111111109
2022-09-18T02:22:42.000Z,9.611111111111109
2022-09-18T02:23:08.000Z,9.722222222222221
2022-09-18T02:23:37.000Z,9.722222222222221
2022-09-18T02:24:12.000Z,9.722222222222221
2022-09-18T02:24:43.000Z,9.722222222222221
2022-09-18T02:25:12.000Z,9.722222222222221
2022-09-18T02:25:32.000Z,9.722222222222221
2022-09-18T02:26:02.000Z,9.722222222222221
2022-09-18T02:26:32.000Z,9.722222222222221
2022-09-18T02:27:07.000Z,9.722222222222221
2022-09-18T02:27:37.000Z,9.722222222222221
2022-09-18T02:28:22.000Z,9.722222222222221
2022-09-18T02:28:42.000Z,9.722222222222221
2022-09-18T02:29:12.000Z,9.722222222222221
2022-09-18T02:29:47.000Z,9.722222222222221
2022-09-18T02:30:17.000Z,9.722222222222221
2022-09-18T02:30:42.000Z,9.722222222222221
2022-09-18T02:31:07.000Z,9.722222222222221
2022-09-18T02:31:37.000Z,9.722222222222221
2022-09-18T02:32:12.000Z,9.722222222222221
2022-09-18T02:32:42.000Z,9.722222222222221
2022-09-18T02:33:12.000Z,9.722222222222221
2022-09-18T02:33:32.000Z,9.722222222222221
2022-09-18T02:34:02.000Z,9.722222222222221
2022-09-18T02:34:32.000Z,9.722222222222221
2022-09-18T02:34:52.000Z,9.722222222222221
2022-09-18T02:35:22.000Z,9.722222222222221
2022-09-18T02:35:44.000Z,9.722222222222221
2022-09-18T02:36:12.000Z,9.722222222222221
2022-09-18T02:36:42.000Z,9.722222222222221
2022-09-18T02:37:12.000Z,9.722222222222221
2022-09-18T02:37:32.000Z,9.722222222222221
2022-09-18T02:38:02.000Z,9.722222222222221
2022-09-18T02:38:32.000Z,9.722222222222221
2022-09-18T02:38:50.000Z,9.722222222222221
2022-09-18T02:39:22.000Z,9.722222222222221
2022-09-18T02:39:44.000Z,9.722222222222221
2022-09-18T02:40:12.000Z,9.722222222222221
2022-09-18T02:40:42.000Z,9.722222222222221
2022-09-18T02:41:12.000Z,9.722222222222221
2022-09-18T02:41:32.000Z,9.722222222222221
2022-09-18T02:42:02.000Z,9.722222222222221
2022-09-18T02:42:32.000Z,9.722222222222221
2022-09-18T02:42:52.000Z,9.722222222222221
2022-09-18T02:43:22.000Z,9.722222222222221
2022-09-18T02:43:45.000Z,9.722222222222221
2022-09-18T02:44:12.000Z,9.722222222222221
2022-09-18T02:44:42.000Z,9.722222222222221
2022-09-18T02:45:12.000Z,9.722222222222221
2022-09-18T02:45:47.000Z,9.722222222222221
2022-09-18T02:46:17.000Z,9.722222222222221
2022-09-18T02:46:43.000Z,9.722222222222221
2022-09-18T02:47:07.000Z,9.722222222222221
2022-09-18T02:47:37.000Z,9.722222222222221
2022-09-18T02:48:12.000Z,9.722222222222221
2022-09-18T02:48:52.000Z,9.722222222222221
2022-09-18T02:49:15.000Z,9.722222222222221
2022-09-18T02:49:43.000Z,9.722222222222221
2022-09-18T02:50:02.000Z,9.722222222222221
2022-09-18T02:50:32.000Z,9.722222222222221
2022-09-18T02:51:07.000Z,9.722222222222221
2022-09-18T02:51:37.000Z,9.722222222222221
2022-09-18T02:52:12.000Z,9.722222222222221
2022-09-18T02:52:43.000Z,9.722222222222221
2022-09-18T02:53:12.000Z,9.722222222222221
2022-09-18T02:53:48.000Z,9.777777777777779
2022-09-18T02:54:17.000Z,9.722222222222221
2022-09-18T02:54:50.000Z,9.777777777777779
2022-09-18T02:55:23.000Z,9.777777777777779
2022-09-18T02:55:44.000Z,9.777777777777779
2022-09-18T02:56:12.000Z,9.777777777777779
2022-09-18T02:56:40.000Z,9.777777777777779
2022-09-18T02:57:03.000Z,9.777777777777779
2022-09-18T02:57:32.000Z,9.777777777777779
2022-09-18T02:57:57.000Z,9.777777777777779
2022-09-18T02:58:20.000Z,9.777777777777779
2022-09-18T02:58:44.000Z,9.777777777777779
2022-09-18T02:59:07.000Z,9.777777777777779
2022-09-18T02:59:37.000Z,9.777777777777779
2022-09-18T03:00:12.000Z,9.777777777777779
2022-09-18T03:00:42.000Z,9.777777777777779
2022-09-18T03:01:12.000Z,9.777777777777779
2022-09-18T03:01:47.000Z,9.777777777777779
2022-09-18T03:02:17.000Z,9.777777777777779
2022-09-18T03:02:43.000Z,9.722222222222221
2022-09-18T03:03:08.000Z,9.722222222222221
2022-09-18T03:03:37.000Z,9.722222222222221
2022-09-18T03:04:13.000Z,9.722222222222221
2022-09-18T03:04:42.000Z,9.777777777777779
2022-09-18T03:05:17.000Z,9.777777777777779
2022-09-18T03:05:57.000Z,9.777777777777779
2022-09-18T03:06:20.000Z,9.777777777777779
2022-09-18T03:06:47.000Z,9.777777777777779
2022-09-18T03:07:10.000Z,9.777777777777779
2022-09-18T03:07:37.000Z,9.777777777777779
2022-09-18T03:08:12.000Z,9.777777777777779
2022-09-18T03:08:52.000Z,9.777777777777779
2022-09-18T03:09:15.000Z,9.777777777777779
2022-09-18T03:09:43.000Z,9.777777777777779
2022-09-18T03:10:17.000Z,9.777777777777779
2022-09-18T03:10:43.000Z,9.777777777777779
2022-09-18T03:11:08.000Z,9.777777777777779
2022-09-18T03:11:36.000Z,9.777777777777779
2022-09-18T03:12:07.000Z,9.777777777777779
2022-09-18T03:12:37.000Z,9.777777777777779
2022-09-18T03:13:04.000Z,9.777777777777779
2022-09-18T03:13:32.000Z,9.777777777777779
2022-09-18T03:14:02.000Z,9.777777777777779
2022-09-18T03:14:32.000Z,9.777777777777779
2022-09-18T03:15:07.000Z,9.777777777777779
2022-09-18T03:15:37.000Z,9.777777777777779
2022-09-18T03:16:12.000Z,9.777777777777779
2022-09-18T03:16:42.000Z,9.777777777777779
2022-09-18T03:17:12.000Z,9.777777777777779
2022-09-18T03:17:47.000Z,9.777777777777779
2022-09-18T03:18:17.000Z,9.777777777777779
2022-09-18T03:18:42.000Z,9.777777777777779
2022-09-18T03:19:07.000Z,9.777777777777779
2022-09-18T03:19:37.000Z,9.777777777777779
2022-09-18T03:20:12.000Z,9.777777777777779
2022-09-18T03:20:42.000Z,9.777777777777779
2022-09-18T03:21:12.000Z,9.777777777777779
2022-09-18T03:21:47.000Z,9.777777777777779
2022-09-18T03:22:17.000Z,9.777777777777779
2022-09-18T03:22:42.000Z,9.777777777777779
2022-09-18T03:23:07.000Z,9.777777777777779
2022-09-18T03:23:37.000Z,9.777777777777779
2022-09-18T03:24:12.000Z,9.777777777777779
2022-09-18T03:24:42.000Z,9.777777777777779
2022-09-18T03:25:12.000Z,9.777777777777779
2022-09-18T03:25:48.000Z,9.777777777777779
2022-09-18T03:26:17.000Z,9.777777777777779
2022-09-18T03:26:42.000Z,9.777777777777779
2022-09-18T03:27:08.000Z,9.777777777777779
2022-09-18T03:27:37.000Z,9.777777777777779
2022-09-18T03:28:12.000Z,9.777777777777779
2022-09-18T03:28:52.000Z,9.777777777777779
2022-09-18T03:29:15.000Z,9.777777777777779
2022-09-18T03:29:42.000Z,9.777777777777779
2022-09-18T03:30:00.000Z,9.777777777777779
2022-09-18T03:30:17.000Z,9.777777777777779
2022-09-18T03:30:42.000Z,9.777777777777779
2022-09-18T03:31:08.000Z,9.777777777777779
2022-09-18T03:31:36.000Z,9.777777777777779
2022-09-18T03:32:12.000Z,9.777777777777779
2022-09-18T03:32:42.000Z,9.777777777777779
2022-09-18T03:33:12.000Z,9.777777777777779
2022-09-18T03:33:47.000Z,9.777777777777779
2022-09-18T03:34:17.000Z,9.777777777777779
2022-09-18T03:34:43.000Z,9.777777777777779
2022-09-18T03:35:07.000Z,9.777777777777779
2022-09-18T03:35:38.000Z,9.777777777777779
2022-09-18T03:36:12.000Z,9.777777777777779
2022-09-18T03:36:42.000Z,9.777777777777779
2022-09-18T03:37:12.000Z,9.777777777777779
2022-09-18T03:37:48.000Z,9.777777777777779
2022-09-18T03:38:17.000Z,9.777777777777779
2022-09-18T03:38:42.000Z,9.777777777777779
2022-09-18T03:39:04.000Z,9.777777777777779
2022-09-18T03:39:37.000Z,9.777777777777779
2022-09-18T03:40:13.000Z,9.777777777777779
2022-09-18T03:40:42.000Z,9.777777777777779
2022-09-18T03:41:12.000Z,9.777777777777779
2022-09-18T03:41:32.000Z,9.777777777777779
2022-09-18T03:42:02.000Z,9.777777777777779
2022-09-18T03:42:32.000Z,9.777777777777779
2022-09-18T03:42:50.000Z,9.777777777777779
2022-09-18T03:43:22.000Z,9.777777777777779
2022-09-18T03:43:44.000Z,9.777777777777779
2022-09-18T03:44:13.000Z,9.777777777777779
2022-09-18T03:44:43.000Z,9.777777777777779
2022-09-18T03:45:13.000Z,9.777777777777779
2022-09-18T03:45:43.000Z,9.777777777777779
2022-09-18T03:46:12.000Z,9.777777777777779
2022-09-18T03:46:42.000Z,9.777777777777779
2022-09-18T03:47:08.000Z,9.777777777777779
2022-09-18T03:47:36.000Z,9.777777777777779
2022-09-18T03:48:07.000Z,9.777777777777779
2022-09-18T03:48:37.000Z,9.777777777777779
2022-09-18T03:49:03.000Z,9.777777777777779
2022-09-18T03:49:32.000Z,9.777777777777779
2022-09-18T03:49:57.000Z,9.777777777777779
2022-09-18T03:50:20.000Z,9.777777777777779
2022-09-18T03:50:47.000Z,9.777777777777779
2022-09-18T03:51:22.000Z,9.777777777777779
2022-09-18T03:51:44.000Z,9.777777777777779
2022-09-18T03:52:12.000Z,9.777777777777779
2022-09-18T03:52:42.000Z,9.777777777777779
2022-09-18T03:53:13.000Z,9.777777777777779
2022-09-18T03:53:47.000Z,9.777777777777779
2022-09-18T03:54:17.000Z,9.777777777777779
2022-09-18T03:54:43.000Z,9.777777777777779
2022-09-18T03:55:08.000Z,10.0
2022-09-18T03:55:37.000Z,9.777777777777779
2022-09-18T03:56:12.000Z,10.0
2022-09-18T03:56:42.000Z,9.777777777777779
2022-09-18T03:57:12.000Z,10.0
2022-09-18T03:57:32.000Z,10.0
2022-09-18T03:57:57.000Z,10.0
2022-09-18T03:58:21.000Z,10.0
2022-09-18T03:58:47.000Z,10.0
2022-09-18T03:59:10.000Z,10.0
2022-09-18T03:59:37.000Z,10.0
2022-09-18T04:00:12.000Z,10.0
2022-09-18T04:00:52.000Z,10.0
2022-09-18T04:01:15.000Z,10.0
2022-09-18T04:01:43.000Z,10.0
2022-09-18T04:02:12.000Z,10.0
2022-09-18T04:02:42.000Z,10.0
2022-09-18T04:03:08.000Z,10.0
2022-09-18T04:03:36.000Z,10.0
2022-09-18T04:04:02.000Z,10.0
2022-09-18T04:04:27.000Z,10.0
2022-09-18T04:04:58.000Z,10.0
2022-09-18T04:05:33.000Z,10.0
2022-09-18T04:06:02.000Z,10.0
2022-09-18T04:06:32.000Z,10.0
2022-09-18T04:07:07.000Z,10.0
2022-09-18T04:07:37.000Z,9.888888888888888
2022-09-18T04:08:12.000Z,9.888888888888888
2022-09-18T04:08:42.000Z,9.888888888888888
2022-09-18T04:09:13.000Z,9.888888888888888
2022-09-18T04:09:47.000Z,10.111111111111112
2022-09-18T04:10:17.000Z,10.111111111111112
2022-09-18T04:10:43.000Z,10.111111111111112
2022-09-18T04:11:04.000Z,10.111111111111112
2022-09-18T04:11:32.000Z,10.111111111111112
2022-09-18T04:11:52.000Z,10.111111111111112
2022-09-18T04:12:28.000Z,10.0
2022-09-18T04:12:56.000Z,10.0
2022-09-18T04:13:12.000Z,10.0
2022-09-18T04:13:47.000Z,10.0
2022-09-18T04:14:17.000Z,10.0
2022-09-18T04:14:43.000Z,10.0
2022-09-18T04:15:07.000Z,10.0
2022-09-18T04:15:37.000Z,10.0
2022-09-18T04:16:12.000Z,10.0
2022-09-18T04:16:42.000Z,10.0
2022-09-18T04:17:12.000Z,10.0
2022-09-18T04:17:47.000Z,10.0
2022-09-18T04:18:18.000Z,10.0
2022-09-18T04:18:43.000Z,10.0
2022-09-18T04:19:07.000Z,10.0
2022-09-18T04:19:37.000Z,10.0
2022-09-18T04:20:13.000Z,10.111111111111112
2022-09-18T04:20:43.000Z,10.111111111111112
2022-09-18T04:21:12.000Z,10.111111111111112
2022-09-18T04:21:47.000Z,10.111111111111112
2022-09-18T04:22:18.000Z,10.111111111111112
2022-09-18T04:22:50.000Z,10.111111111111112
2022-09-18T04:23:23.000Z,10.111111111111112
2022-09-18T04:23:44.000Z,10.111111111111112
2022-09-18T04:24:12.000Z,10.111111111111112
2022-09-18T04:24:42.000Z,10.111111111111112
2022-09-18T04:25:17.000Z,10.111111111111112
2022-09-18T04:25:47.000Z,10.0
2022-09-18T04:26:17.000Z,10.0
2022-09-18T04:26:42.000Z,10.0
2022-09-18T04:27:07.000Z,10.0
2022-09-18T04:27:37.000Z,10.0
2022-09-18T04:28:12.000Z,10.0
2022-09-18T04:28:42.000Z,10.0
2022-09-18T04:29:12.000Z,10.0
2022-09-18T04:29:47.000Z,10.0
2022-09-18T04:30:17.000Z,10.0
2022-09-18T04:30:43.000Z,10.0
2022-09-18T04:31:07.000Z,10.0
2022-09-18T04:31:37.000Z,10.0
2022-09-18T04:32:12.000Z,10.0
2022-09-18T04:32:42.000Z,10.0
2022-09-18T04:33:12.000Z,10.0
2022-09-18T04:33:47.000Z,10.0
2022-09-18T04:34:17.000Z,10.0
2022-09-18T04:34:42.000Z,10.0
2022-09-18T04:35:07.000Z,10.0
2022-09-18T04:35:37.000Z,10.0
2022-09-18T04:36:12.000Z,10.0
2022-09-18T04:36:42.000Z,10.0
2022-09-18T04:37:12.000Z,10.0
2022-09-18T04:37:47.000Z,10.0
2022-09-18T04:38:17.000Z,10.0
2022-09-18T04:38:42.000Z,10.0
2022-09-18T04:39:04.000Z,10.0
2022-09-18T04:39:32.000Z,10.0
2022-09-18T04:40:02.000Z,10.0